sensor_id;sensor_type;location;lat;lon;timestamp;temperature;humidity
34095;DHT22;20372;47.080;15.410;2023-02-19T00:00:31;4.70;99.90
34095;DHT22;20372;47.080;15.410;2023-02-19T00:02:56;4.90;99.90
34095;DHT22;20372;47.080;15.410;2023-02-19T00:05:22;5.20;99.90
34095;DHT22;20372;47.080;15.410;2023-02-19T00:07:48;5.10;99.90
34095;DHT22;20372;47.080;15.410;2023-02-19T00:10:14;5.00;99.90
34095;DHT22;20372;47.080;15.410;2023-02-19T00:12:39;5.10;99.90
34095;DHT22;20372;47.080;15.410;2023-02-19T00:15:05;5.20;99.90
34095;DHT22;20372;47.080;15.410;2023-02-19T00:17:31;5.10;99.90
34095;DHT22;20372;47.080;15.410;2023-02-19T00:19:56;5.10;99.90
34095;DHT22;20372;47.080;15.410;2023-02-19T00:22:22;4.90;99.90
34095;DHT22;20372;47.080;15.410;2023-02-19T00:24:48;4.90;99.90
34095;DHT22;20372;47.080;15.410;2023-02-19T00:27:14;4.80;99.90
34095;DHT22;20372;47.080;15.410;2023-02-19T00:29:40;4.70;99.90
34095;DHT22;20372;47.080;15.410;2023-02-19T00:32:05;4.60;99.90
34095;DHT22;20372;47.080;15.410;2023-02-19T00:34:31;4.60;99.90
34095;DHT22;20372;47.080;15.410;2023-02-19T00:36:56;4.60;99.90
34095;DHT22;20372;47.080;15.410;2023-02-19T00:39:22;4.60;99.90
34095;DHT22;20372;47.080;15.410;2023-02-19T00:41:47;4.50;99.90
34095;DHT22;20372;47.080;15.410;2023-02-19T00:44:13;4.40;99.90
34095;DHT22;20372;47.080;15.410;2023-02-19T00:46:40;4.40;99.90
34095;DHT22;20372;47.080;15.410;2023-02-19T00:49:06;4.30;99.90
34095;DHT22;20372;47.080;15.410;2023-02-19T00:51:33;4.40;99.90
34095;DHT22;20372;47.080;15.410;2023-02-19T00:53:59;4.40;99.90
34095;DHT22;20372;47.080;15.410;2023-02-19T00:56:25;4.30;99.90
34095;DHT22;20372;47.080;15.410;2023-02-19T00:58:50;4.40;99.90
34095;DHT22;20372;47.080;15.410;2023-02-19T01:01:16;4.40;99.90
34095;DHT22;20372;47.080;15.410;2023-02-19T01:03:42;4.40;99.90
34095;DHT22;20372;47.080;15.410;2023-02-19T01:06:08;4.30;99.90
34095;DHT22;20372;47.080;15.410;2023-02-19T01:08:34;4.20;99.90
34095;DHT22;20372;47.080;15.410;2023-02-19T01:11:00;4.20;99.90
34095;DHT22;20372;47.080;15.410;2023-02-19T01:13:26;4.40;99.90
34095;DHT22;20372;47.080;15.410;2023-02-19T01:15:52;4.50;99.90
34095;DHT22;20372;47.080;15.410;2023-02-19T01:18:19;4.40;99.90
34095;DHT22;20372;47.080;15.410;2023-02-19T01:20:44;4.50;99.90
34095;DHT22;20372;47.080;15.410;2023-02-19T01:23:11;4.50;99.90
34095;DHT22;20372;47.080;15.410;2023-02-19T01:25:40;4.50;99.90
34095;DHT22;20372;47.080;15.410;2023-02-19T01:28:06;4.50;99.90
34095;DHT22;20372;47.080;15.410;2023-02-19T01:30:33;4.30;99.90
34095;DHT22;20372;47.080;15.410;2023-02-19T01:32:59;4.30;99.90
34095;DHT22;20372;47.080;15.410;2023-02-19T01:35:24;4.50;99.90
34095;DHT22;20372;47.080;15.410;2023-02-19T01:37:50;4.60;99.90
34095;DHT22;20372;47.080;15.410;2023-02-19T01:40:15;4.40;99.90
34095;DHT22;20372;47.080;15.410;2023-02-19T01:42:42;4.40;99.90
34095;DHT22;20372;47.080;15.410;2023-02-19T01:45:22;4.30;99.90
34095;DHT22;20372;47.080;15.410;2023-02-19T01:47:55;4.30;99.90
34095;DHT22;20372;47.080;15.410;2023-02-19T01:50:22;4.20;99.90
34095;DHT22;20372;47.080;15.410;2023-02-19T01:52:48;4.30;99.90
34095;DHT22;20372;47.080;15.410;2023-02-19T01:55:14;4.30;99.90
34095;DHT22;20372;47.080;15.410;2023-02-19T01:57:40;4.30;99.90
34095;DHT22;20372;47.080;15.410;2023-02-19T02:00:09;4.40;99.90
34095;DHT22;20372;47.080;15.410;2023-02-19T02:02:35;4.50;99.90
34095;DHT22;20372;47.080;15.410;2023-02-19T02:05:01;4.40;99.90
34095;DHT22;20372;47.080;15.410;2023-02-19T02:07:27;4.40;99.90
34095;DHT22;20372;47.080;15.410;2023-02-19T02:10:11;4.40;99.90
34095;DHT22;20372;47.080;15.410;2023-02-19T02:12:46;4.30;99.90
34095;DHT22;20372;47.080;15.410;2023-02-19T02:15:12;4.30;99.90
34095;DHT22;20372;47.080;15.410;2023-02-19T02:17:56;4.30;99.90
34095;DHT22;20372;47.080;15.410;2023-02-19T02:20:26;4.30;99.90
34095;DHT22;20372;47.080;15.410;2023-02-19T02:23:02;4.30;99.90
34095;DHT22;20372;47.080;15.410;2023-02-19T02:28:10;4.30;99.90
34095;DHT22;20372;47.080;15.410;2023-02-19T02:30:41;4.20;99.90
34095;DHT22;20372;47.080;15.410;2023-02-19T02:38:11;4.30;99.90
34095;DHT22;20372;47.080;15.410;2023-02-19T02:40:38;4.30;99.90
34095;DHT22;20372;47.080;15.410;2023-02-19T02:43:06;4.40;99.90
34095;DHT22;20372;47.080;15.410;2023-02-19T02:45:32;4.60;99.90
34095;DHT22;20372;47.080;15.410;2023-02-19T02:50:43;4.60;99.90
34095;DHT22;20372;47.080;15.410;2023-02-19T02:53:12;4.90;99.90
34095;DHT22;20372;47.080;15.410;2023-02-19T02:55:58;4.90;99.90
34095;DHT22;20372;47.080;15.410;2023-02-19T02:58:24;5.00;99.90
34095;DHT22;20372;47.080;15.410;2023-02-19T03:00:53;5.10;99.90
34095;DHT22;20372;47.080;15.410;2023-02-19T03:03:39;5.20;99.90
34095;DHT22;20372;47.080;15.410;2023-02-19T03:06:05;5.20;99.90
34095;DHT22;20372;47.080;15.410;2023-02-19T03:08:42;5.30;99.90
34095;DHT22;20372;47.080;15.410;2023-02-19T03:11:10;5.30;99.90
34095;DHT22;20372;47.080;15.410;2023-02-19T03:16:45;5.20;99.90
34095;DHT22;20372;47.080;15.410;2023-02-19T03:19:32;5.10;99.90
34095;DHT22;20372;47.080;15.410;2023-02-19T03:22:16;5.00;99.90
34095;DHT22;20372;47.080;15.410;2023-02-19T03:24:44;5.00;99.90
34095;DHT22;20372;47.080;15.410;2023-02-19T03:27:29;4.90;99.90
34095;DHT22;20372;47.080;15.410;2023-02-19T03:29:56;4.80;99.90
34095;DHT22;20372;47.080;15.410;2023-02-19T03:32:29;4.60;99.90
34095;DHT22;20372;47.080;15.410;2023-02-19T03:35:39;4.70;99.90
34095;DHT22;20372;47.080;15.410;2023-02-19T03:40:14;4.50;99.90
34095;DHT22;20372;47.080;15.410;2023-02-19T03:58:22;4.40;99.90
34095;DHT22;20372;47.080;15.410;2023-02-19T04:03:20;4.30;99.90
34095;DHT22;20372;47.080;15.410;2023-02-19T04:05:48;4.40;99.90
34095;DHT22;20372;47.080;15.410;2023-02-19T04:08:16;4.40;99.90
34095;DHT22;20372;47.080;15.410;2023-02-19T04:10:43;4.30;99.90
34095;DHT22;20372;47.080;15.410;2023-02-19T04:13:11;4.30;99.90
34095;DHT22;20372;47.080;15.410;2023-02-19T04:15:39;4.30;99.90
34095;DHT22;20372;47.080;15.410;2023-02-19T04:18:06;4.20;99.90
34095;DHT22;20372;47.080;15.410;2023-02-19T04:20:37;4.20;99.90
34095;DHT22;20372;47.080;15.410;2023-02-19T04:23:03;4.10;99.90
34095;DHT22;20372;47.080;15.410;2023-02-19T04:25:29;4.20;99.90
34095;DHT22;20372;47.080;15.410;2023-02-19T04:27:55;4.20;99.90
34095;DHT22;20372;47.080;15.410;2023-02-19T04:30:21;4.10;99.90
34095;DHT22;20372;47.080;15.410;2023-02-19T04:32:46;4.20;99.90
34095;DHT22;20372;47.080;15.410;2023-02-19T04:35:12;4.10;99.90
34095;DHT22;20372;47.080;15.410;2023-02-19T04:37:37;4.10;99.90
34095;DHT22;20372;47.080;15.410;2023-02-19T04:40:03;4.10;99.90
34095;DHT22;20372;47.080;15.410;2023-02-19T04:42:29;4.00;99.90
34095;DHT22;20372;47.080;15.410;2023-02-19T04:44:54;3.80;99.90
34095;DHT22;20372;47.080;15.410;2023-02-19T04:47:20;3.80;99.90
34095;DHT22;20372;47.080;15.410;2023-02-19T04:49:46;3.90;99.90
34095;DHT22;20372;47.080;15.410;2023-02-19T04:52:11;3.90;99.90
34095;DHT22;20372;47.080;15.410;2023-02-19T04:54:37;3.90;99.90
34095;DHT22;20372;47.080;15.410;2023-02-19T04:57:02;3.90;99.90
34095;DHT22;20372;47.080;15.410;2023-02-19T04:59:28;4.10;99.90
34095;DHT22;20372;47.080;15.410;2023-02-19T05:01:54;4.30;99.90
34095;DHT22;20372;47.080;15.410;2023-02-19T05:04:19;4.20;99.90
34095;DHT22;20372;47.080;15.410;2023-02-19T05:06:45;4.10;99.90
34095;DHT22;20372;47.080;15.410;2023-02-19T05:09:10;4.10;99.90
34095;DHT22;20372;47.080;15.410;2023-02-19T05:11:36;3.90;99.90
34095;DHT22;20372;47.080;15.410;2023-02-19T05:14:02;3.90;99.90
34095;DHT22;20372;47.080;15.410;2023-02-19T05:16:27;3.80;99.90
34095;DHT22;20372;47.080;15.410;2023-02-19T05:18:53;3.80;99.90
34095;DHT22;20372;47.080;15.410;2023-02-19T05:21:19;3.80;99.90
34095;DHT22;20372;47.080;15.410;2023-02-19T05:23:44;3.80;99.90
34095;DHT22;20372;47.080;15.410;2023-02-19T05:26:14;3.90;99.90
34095;DHT22;20372;47.080;15.410;2023-02-19T05:28:42;4.00;99.90
34095;DHT22;20372;47.080;15.410;2023-02-19T05:31:08;3.90;99.90
34095;DHT22;20372;47.080;15.410;2023-02-19T05:33:35;4.10;99.90
34095;DHT22;20372;47.080;15.410;2023-02-19T05:36:06;4.10;99.90
34095;DHT22;20372;47.080;15.410;2023-02-19T05:38:32;4.20;99.90
34095;DHT22;20372;47.080;15.410;2023-02-19T05:41:13;4.20;99.90
34095;DHT22;20372;47.080;15.410;2023-02-19T05:43:40;4.30;99.90
34095;DHT22;20372;47.080;15.410;2023-02-19T05:46:06;4.30;99.90
34095;DHT22;20372;47.080;15.410;2023-02-19T05:48:32;4.30;99.90
34095;DHT22;20372;47.080;15.410;2023-02-19T05:51:05;4.40;99.90
34095;DHT22;20372;47.080;15.410;2023-02-19T05:53:31;4.40;99.90
34095;DHT22;20372;47.080;15.410;2023-02-19T05:55:56;4.50;99.90
34095;DHT22;20372;47.080;15.410;2023-02-19T05:58:22;4.60;99.90
34095;DHT22;20372;47.080;15.410;2023-02-19T06:00:48;4.60;99.90
34095;DHT22;20372;47.080;15.410;2023-02-19T06:03:13;4.70;99.90
34095;DHT22;20372;47.080;15.410;2023-02-19T06:05:39;4.70;99.90
34095;DHT22;20372;47.080;15.410;2023-02-19T06:08:04;4.80;99.90
34095;DHT22;20372;47.080;15.410;2023-02-19T06:10:30;4.80;99.90
34095;DHT22;20372;47.080;15.410;2023-02-19T06:12:56;4.90;99.90
34095;DHT22;20372;47.080;15.410;2023-02-19T06:15:21;4.90;99.90
34095;DHT22;20372;47.080;15.410;2023-02-19T06:17:47;4.90;99.90
34095;DHT22;20372;47.080;15.410;2023-02-19T06:20:13;4.80;99.90
34095;DHT22;20372;47.080;15.410;2023-02-19T06:22:39;4.80;99.90
34095;DHT22;20372;47.080;15.410;2023-02-19T06:25:04;4.80;99.90
34095;DHT22;20372;47.080;15.410;2023-02-19T06:27:32;4.90;99.90
34095;DHT22;20372;47.080;15.410;2023-02-19T06:29:58;5.00;99.90
34095;DHT22;20372;47.080;15.410;2023-02-19T06:32:23;5.10;99.90
34095;DHT22;20372;47.080;15.410;2023-02-19T06:34:49;5.20;99.90
34095;DHT22;20372;47.080;15.410;2023-02-19T06:37:14;4.90;99.90
34095;DHT22;20372;47.080;15.410;2023-02-19T06:39:40;4.70;99.90
34095;DHT22;20372;47.080;15.410;2023-02-19T06:42:06;4.70;99.90
34095;DHT22;20372;47.080;15.410;2023-02-19T06:44:31;4.70;99.90
34095;DHT22;20372;47.080;15.410;2023-02-19T06:46:57;4.80;99.90
34095;DHT22;20372;47.080;15.410;2023-02-19T06:49:22;4.90;99.90
34095;DHT22;20372;47.080;15.410;2023-02-19T06:51:48;5.00;99.90
34095;DHT22;20372;47.080;15.410;2023-02-19T06:54:13;5.10;99.90
34095;DHT22;20372;47.080;15.410;2023-02-19T06:56:40;5.10;99.90
34095;DHT22;20372;47.080;15.410;2023-02-19T06:59:07;5.00;99.90
34095;DHT22;20372;47.080;15.410;2023-02-19T07:01:33;4.90;99.90
34095;DHT22;20372;47.080;15.410;2023-02-19T07:03:59;5.00;99.90
34095;DHT22;20372;47.080;15.410;2023-02-19T07:06:25;4.90;99.90
34095;DHT22;20372;47.080;15.410;2023-02-19T07:08:51;5.10;99.90
34095;DHT22;20372;47.080;15.410;2023-02-19T07:11:16;4.90;99.90
34095;DHT22;20372;47.080;15.410;2023-02-19T07:13:45;5.00;99.90
34095;DHT22;20372;47.080;15.410;2023-02-19T07:16:11;5.00;99.90
34095;DHT22;20372;47.080;15.410;2023-02-19T07:18:38;5.00;99.90
34095;DHT22;20372;47.080;15.410;2023-02-19T07:21:04;4.90;99.90
34095;DHT22;20372;47.080;15.410;2023-02-19T07:23:30;5.20;99.90
34095;DHT22;20372;47.080;15.410;2023-02-19T07:25:56;5.20;99.90
34095;DHT22;20372;47.080;15.410;2023-02-19T07:28:22;5.30;99.90
34095;DHT22;20372;47.080;15.410;2023-02-19T07:30:47;5.30;99.90
34095;DHT22;20372;47.080;15.410;2023-02-19T07:33:13;5.50;99.90
34095;DHT22;20372;47.080;15.410;2023-02-19T07:35:44;5.50;99.90
34095;DHT22;20372;47.080;15.410;2023-02-19T07:38:09;5.60;99.90
34095;DHT22;20372;47.080;15.410;2023-02-19T07:40:35;5.70;99.90
34095;DHT22;20372;47.080;15.410;2023-02-19T07:43:01;5.80;99.90
34095;DHT22;20372;47.080;15.410;2023-02-19T07:45:27;6.00;99.90
34095;DHT22;20372;47.080;15.410;2023-02-19T07:47:52;6.00;99.90
34095;DHT22;20372;47.080;15.410;2023-02-19T07:50:18;6.10;99.90
34095;DHT22;20372;47.080;15.410;2023-02-19T07:52:43;6.30;99.90
34095;DHT22;20372;47.080;15.410;2023-02-19T07:55:09;6.40;99.90
34095;DHT22;20372;47.080;15.410;2023-02-19T07:57:34;6.40;99.90
34095;DHT22;20372;47.080;15.410;2023-02-19T08:00:00;6.60;99.90
34095;DHT22;20372;47.080;15.410;2023-02-19T08:02:25;6.90;99.90
34095;DHT22;20372;47.080;15.410;2023-02-19T08:05:10;6.90;99.90
34095;DHT22;20372;47.080;15.410;2023-02-19T08:07:36;7.00;99.90
34095;DHT22;20372;47.080;15.410;2023-02-19T08:10:02;6.80;99.90
34095;DHT22;20372;47.080;15.410;2023-02-19T08:12:54;7.00;99.90
34095;DHT22;20372;47.080;15.410;2023-02-19T08:15:38;7.10;99.90
34095;DHT22;20372;47.080;15.410;2023-02-19T08:18:03;7.20;99.90
34095;DHT22;20372;47.080;15.410;2023-02-19T08:20:29;7.20;99.90
34095;DHT22;20372;47.080;15.410;2023-02-19T08:22:54;7.10;99.90
34095;DHT22;20372;47.080;15.410;2023-02-19T08:25:20;7.30;99.90
34095;DHT22;20372;47.080;15.410;2023-02-19T08:27:45;7.40;99.90
34095;DHT22;20372;47.080;15.410;2023-02-19T08:30:11;7.60;99.90
34095;DHT22;20372;47.080;15.410;2023-02-19T08:32:37;7.60;99.90
34095;DHT22;20372;47.080;15.410;2023-02-19T08:35:02;7.80;99.90
34095;DHT22;20372;47.080;15.410;2023-02-19T08:37:28;7.90;99.90
34095;DHT22;20372;47.080;15.410;2023-02-19T08:39:53;8.00;99.90
34095;DHT22;20372;47.080;15.410;2023-02-19T08:42:19;8.00;99.90
34095;DHT22;20372;47.080;15.410;2023-02-19T08:44:44;7.90;99.90
34095;DHT22;20372;47.080;15.410;2023-02-19T08:47:10;7.90;99.90
34095;DHT22;20372;47.080;15.410;2023-02-19T08:49:36;7.80;99.90
34095;DHT22;20372;47.080;15.410;2023-02-19T08:52:01;7.90;99.90
34095;DHT22;20372;47.080;15.410;2023-02-19T08:54:27;8.10;99.90
34095;DHT22;20372;47.080;15.410;2023-02-19T08:56:52;8.50;99.90
34095;DHT22;20372;47.080;15.410;2023-02-19T08:59:19;8.60;99.90
34095;DHT22;20372;47.080;15.410;2023-02-19T09:01:44;8.50;99.90
34095;DHT22;20372;47.080;15.410;2023-02-19T09:04:10;8.30;99.90
34095;DHT22;20372;47.080;15.410;2023-02-19T09:06:37;8.40;99.90
34095;DHT22;20372;47.080;15.410;2023-02-19T09:09:03;9.40;99.90
34095;DHT22;20372;47.080;15.410;2023-02-19T09:11:28;10.40;99.90
34095;DHT22;20372;47.080;15.410;2023-02-19T09:13:54;11.90;99.90
34095;DHT22;20372;47.080;15.410;2023-02-19T09:16:20;13.80;97.20
34095;DHT22;20372;47.080;15.410;2023-02-19T09:18:46;15.40;94.40
34095;DHT22;20372;47.080;15.410;2023-02-19T09:21:11;15.00;92.50
34095;DHT22;20372;47.080;15.410;2023-02-19T09:23:37;13.40;94.20
34095;DHT22;20372;47.080;15.410;2023-02-19T09:26:03;12.20;94.40
34095;DHT22;20372;47.080;15.410;2023-02-19T09:28:31;11.00;95.30
34095;DHT22;20372;47.080;15.410;2023-02-19T09:31:01;10.70;97.30
34095;DHT22;20372;47.080;15.410;2023-02-19T09:33:27;10.60;96.90
34095;DHT22;20372;47.080;15.410;2023-02-19T09:35:52;11.10;97.30
34095;DHT22;20372;47.080;15.410;2023-02-19T09:38:18;11.70;96.40
34095;DHT22;20372;47.080;15.410;2023-02-19T09:40:44;11.90;96.30
34095;DHT22;20372;47.080;15.410;2023-02-19T09:43:16;12.30;95.90
34095;DHT22;20372;47.080;15.410;2023-02-19T09:45:42;12.50;95.90
34095;DHT22;20372;47.080;15.410;2023-02-19T09:48:08;12.80;95.40
34095;DHT22;20372;47.080;15.410;2023-02-19T09:50:52;12.60;94.70
34095;DHT22;20372;47.080;15.410;2023-02-19T09:53:22;12.50;94.30
34095;DHT22;20372;47.080;15.410;2023-02-19T09:55:49;12.60;94.30
34095;DHT22;20372;47.080;15.410;2023-02-19T10:00:42;13.10;95.00
34095;DHT22;20372;47.080;15.410;2023-02-19T10:03:11;12.40;95.00
34095;DHT22;20372;47.080;15.410;2023-02-19T10:05:39;12.70;94.70
34095;DHT22;20372;47.080;15.410;2023-02-19T10:08:06;12.50;94.20
34095;DHT22;20372;47.080;15.410;2023-02-19T10:10:34;12.50;94.90
34095;DHT22;20372;47.080;15.410;2023-02-19T10:13:12;12.90;94.60
34095;DHT22;20372;47.080;15.410;2023-02-19T10:15:42;12.50;93.10
34095;DHT22;20372;47.080;15.410;2023-02-19T10:18:09;12.60;94.30
34095;DHT22;20372;47.080;15.410;2023-02-19T10:20:35;13.00;94.40
34095;DHT22;20372;47.080;15.410;2023-02-19T10:23:04;12.20;93.70
34095;DHT22;20372;47.080;15.410;2023-02-19T10:25:31;12.90;94.30
34095;DHT22;20372;47.080;15.410;2023-02-19T10:28:00;14.00;93.80
34095;DHT22;20372;47.080;15.410;2023-02-19T10:30:30;13.60;93.70
34095;DHT22;20372;47.080;15.410;2023-02-19T10:33:03;13.50;92.90
34095;DHT22;20372;47.080;15.410;2023-02-19T10:35:34;13.00;92.90
34095;DHT22;20372;47.080;15.410;2023-02-19T10:38:00;13.30;91.50
34095;DHT22;20372;47.080;15.410;2023-02-19T10:40:26;13.10;93.00
34095;DHT22;20372;47.080;15.410;2023-02-19T10:42:53;13.70;93.00
34095;DHT22;20372;47.080;15.410;2023-02-19T10:45:24;14.50;92.80
34095;DHT22;20372;47.080;15.410;2023-02-19T10:47:53;14.60;90.60
34095;DHT22;20372;47.080;15.410;2023-02-19T10:50:25;14.50;91.90
34095;DHT22;20372;47.080;15.410;2023-02-19T10:52:52;14.80;91.00
34095;DHT22;20372;47.080;15.410;2023-02-19T10:57:52;14.50;91.00
34095;DHT22;20372;47.080;15.410;2023-02-19T11:00:23;14.30;90.40
34095;DHT22;20372;47.080;15.410;2023-02-19T11:03:07;14.20;88.90
34095;DHT22;20372;47.080;15.410;2023-02-19T11:05:36;14.50;90.20
34095;DHT22;20372;47.080;15.410;2023-02-19T11:08:14;14.70;90.10
34095;DHT22;20372;47.080;15.410;2023-02-19T11:10:41;14.70;88.40
34095;DHT22;20372;47.080;15.410;2023-02-19T11:13:12;15.00;89.70
34095;DHT22;20372;47.080;15.410;2023-02-19T11:15:39;15.30;88.80
34095;DHT22;20372;47.080;15.410;2023-02-19T11:20:38;15.30;88.10
34095;DHT22;20372;47.080;15.410;2023-02-19T11:23:13;15.50;87.40
34095;DHT22;20372;47.080;15.410;2023-02-19T11:25:46;15.30;84.70
34095;DHT22;20372;47.080;15.410;2023-02-19T11:30:42;15.20;84.00
34095;DHT22;20372;47.080;15.410;2023-02-19T11:35:54;16.30;81.90
34095;DHT22;20372;47.080;15.410;2023-02-19T11:38:23;16.60;79.30
34095;DHT22;20372;47.080;15.410;2023-02-19T11:43:27;16.20;77.40
34095;DHT22;20372;47.080;15.410;2023-02-19T11:45:59;16.50;75.80
34095;DHT22;20372;47.080;15.410;2023-02-19T11:48:38;16.80;73.40
34095;DHT22;20372;47.080;15.410;2023-02-19T11:53:49;17.00;71.30
34095;DHT22;20372;47.080;15.410;2023-02-19T11:56:24;16.90;70.60
34095;DHT22;20372;47.080;15.410;2023-02-19T12:09:03;17.40;67.70
34095;DHT22;20372;47.080;15.410;2023-02-19T12:11:48;17.50;67.30
34095;DHT22;20372;47.080;15.410;2023-02-19T12:14:36;17.60;67.10
34095;DHT22;20372;47.080;15.410;2023-02-19T12:20:38;17.90;66.70
34095;DHT22;20372;47.080;15.410;2023-02-19T12:25:41;17.80;65.30
34095;DHT22;20372;47.080;15.410;2023-02-19T12:28:25;18.20;63.20
34095;DHT22;20372;47.080;15.410;2023-02-19T12:38:58;18.00;63.00
34095;DHT22;20372;47.080;15.410;2023-02-19T12:41:37;17.70;62.50
34095;DHT22;20372;47.080;15.410;2023-02-19T12:44:12;17.20;62.30
34095;DHT22;20372;47.080;15.410;2023-02-19T12:46:43;17.20;63.80
34095;DHT22;20372;47.080;15.410;2023-02-19T12:49:15;16.70;66.20
34095;DHT22;20372;47.080;15.410;2023-02-19T12:54:16;16.40;68.90
34095;DHT22;20372;47.080;15.410;2023-02-19T12:59:30;16.30;68.10
34095;DHT22;20372;47.080;15.410;2023-02-19T13:07:13;16.10;69.60
34095;DHT22;20372;47.080;15.410;2023-02-19T13:09:49;15.70;70.50
34095;DHT22;20372;47.080;15.410;2023-02-19T13:12:26;15.80;71.00
34095;DHT22;20372;47.080;15.410;2023-02-19T13:14:55;15.40;72.20
34095;DHT22;20372;47.080;15.410;2023-02-19T13:19:55;15.30;72.90
34095;DHT22;20372;47.080;15.410;2023-02-19T13:22:23;15.50;73.20
34095;DHT22;20372;47.080;15.410;2023-02-19T13:25:09;15.60;72.90
34095;DHT22;20372;47.080;15.410;2023-02-19T13:27:40;15.20;73.40
34095;DHT22;20372;47.080;15.410;2023-02-19T13:33:18;15.20;73.50
34095;DHT22;20372;47.080;15.410;2023-02-19T13:35:25;15.40;73.40
34095;DHT22;20372;47.080;15.410;2023-02-19T13:37:52;15.50;73.40
34095;DHT22;20372;47.080;15.410;2023-02-19T13:42:50;15.40;73.00
34095;DHT22;20372;47.080;15.410;2023-02-19T13:45:20;15.40;73.50
34095;DHT22;20372;47.080;15.410;2023-02-19T13:50:25;15.10;74.50
34095;DHT22;20372;47.080;15.410;2023-02-19T13:52:52;15.00;74.50
34095;DHT22;20372;47.080;15.410;2023-02-19T14:01:09;15.20;75.30
34095;DHT22;20372;47.080;15.410;2023-02-19T14:06:07;14.90;75.20
34095;DHT22;20372;47.080;15.410;2023-02-19T14:09:07;15.00;75.80
34095;DHT22;20372;47.080;15.410;2023-02-19T14:16:59;14.70;75.80
34095;DHT22;20372;47.080;15.410;2023-02-19T14:24:51;14.60;75.10
34095;DHT22;20372;47.080;15.410;2023-02-19T14:27:17;14.80;75.40
34095;DHT22;20372;47.080;15.410;2023-02-19T14:29:43;14.60;75.90
34095;DHT22;20372;47.080;15.410;2023-02-19T14:32:10;14.50;76.00
34095;DHT22;20372;47.080;15.410;2023-02-19T14:34:40;14.50;76.20
34095;DHT22;20372;47.080;15.410;2023-02-19T14:37:12;14.50;75.60
34095;DHT22;20372;47.080;15.410;2023-02-19T14:39:40;14.40;76.10
34095;DHT22;20372;47.080;15.410;2023-02-19T14:42:13;14.50;75.60
34095;DHT22;20372;47.080;15.410;2023-02-19T14:47:21;14.30;75.70
34095;DHT22;20372;47.080;15.410;2023-02-19T14:49:48;14.20;76.60
34095;DHT22;20372;47.080;15.410;2023-02-19T14:52:19;14.20;75.70
34095;DHT22;20372;47.080;15.410;2023-02-19T14:54:56;14.00;76.00
34095;DHT22;20372;47.080;15.410;2023-02-19T14:57:27;13.90;76.80
34095;DHT22;20372;47.080;15.410;2023-02-19T14:59:57;14.00;76.60
34095;DHT22;20372;47.080;15.410;2023-02-19T15:02:23;14.00;77.60
34095;DHT22;20372;47.080;15.410;2023-02-19T15:04:53;14.00;77.20
34095;DHT22;20372;47.080;15.410;2023-02-19T15:07:20;13.80;77.30
34095;DHT22;20372;47.080;15.410;2023-02-19T15:09:48;13.80;77.50
34095;DHT22;20372;47.080;15.410;2023-02-19T15:12:21;13.70;77.10
34095;DHT22;20372;47.080;15.410;2023-02-19T15:14:48;13.70;77.70
34095;DHT22;20372;47.080;15.410;2023-02-19T15:17:18;13.70;77.40
34095;DHT22;20372;47.080;15.410;2023-02-19T15:19:45;13.60;75.80
34095;DHT22;20372;47.080;15.410;2023-02-19T15:22:13;13.60;76.30
34095;DHT22;20372;47.080;15.410;2023-02-19T15:24:43;13.60;76.00
34095;DHT22;20372;47.080;15.410;2023-02-19T15:27:20;13.60;75.90
34095;DHT22;20372;47.080;15.410;2023-02-19T15:29:48;13.50;75.90
34095;DHT22;20372;47.080;15.410;2023-02-19T15:32:18;13.50;75.70
34095;DHT22;20372;47.080;15.410;2023-02-19T15:34:53;13.50;75.50
34095;DHT22;20372;47.080;15.410;2023-02-19T15:37:19;13.50;75.90
34095;DHT22;20372;47.080;15.410;2023-02-19T15:39:45;13.40;75.30
34095;DHT22;20372;47.080;15.410;2023-02-19T15:42:25;13.30;75.30
34095;DHT22;20372;47.080;15.410;2023-02-19T15:57:43;12.50;78.40
34095;DHT22;20372;47.080;15.410;2023-02-19T16:00:31;12.60;78.00
34095;DHT22;20372;47.080;15.410;2023-02-19T16:02:59;12.50;78.20
34095;DHT22;20372;47.080;15.410;2023-02-19T16:05:26;12.40;78.40
34095;DHT22;20372;47.080;15.410;2023-02-19T16:10:37;12.20;79.80
34095;DHT22;20372;47.080;15.410;2023-02-19T16:13:03;11.90;79.80
34095;DHT22;20372;47.080;15.410;2023-02-19T16:15:30;12.10;79.10
34095;DHT22;20372;47.080;15.410;2023-02-19T16:17:56;12.10;79.00
34095;DHT22;20372;47.080;15.410;2023-02-19T16:22:48;12.10;79.00
34095;DHT22;20372;47.080;15.410;2023-02-19T16:27:54;11.80;79.60
34095;DHT22;20372;47.080;15.410;2023-02-19T16:35:35;11.80;79.60
34095;DHT22;20372;47.080;15.410;2023-02-19T16:38:01;11.80;79.70
34095;DHT22;20372;47.080;15.410;2023-02-19T16:45:36;11.30;82.60
34095;DHT22;20372;47.080;15.410;2023-02-19T16:48:01;11.50;81.10
34095;DHT22;20372;47.080;15.410;2023-02-19T16:50:28;11.50;80.90
34095;DHT22;20372;47.080;15.410;2023-02-19T16:52:58;11.70;80.10
34095;DHT22;20372;47.080;15.410;2023-02-19T16:55:23;11.90;79.30
34095;DHT22;20372;47.080;15.410;2023-02-19T16:57:49;11.90;79.70
34095;DHT22;20372;47.080;15.410;2023-02-19T17:00:17;11.90;79.40
34095;DHT22;20372;47.080;15.410;2023-02-19T17:02:44;11.70;79.50
34095;DHT22;20372;47.080;15.410;2023-02-19T17:05:10;11.80;79.60
34095;DHT22;20372;47.080;15.410;2023-02-19T17:07:36;11.50;80.20
34095;DHT22;20372;47.080;15.410;2023-02-19T17:10:01;11.60;80.30
34095;DHT22;20372;47.080;15.410;2023-02-19T17:12:27;11.60;80.40
34095;DHT22;20372;47.080;15.410;2023-02-19T17:14:52;11.60;80.00
34095;DHT22;20372;47.080;15.410;2023-02-19T17:17:18;11.50;80.20
34095;DHT22;20372;47.080;15.410;2023-02-19T17:19:43;11.60;80.50
34095;DHT22;20372;47.080;15.410;2023-02-19T17:22:09;11.50;80.60
34095;DHT22;20372;47.080;15.410;2023-02-19T17:24:41;11.60;80.40
34095;DHT22;20372;47.080;15.410;2023-02-19T17:27:09;11.60;80.30
34095;DHT22;20372;47.080;15.410;2023-02-19T17:29:35;11.60;80.00
34095;DHT22;20372;47.080;15.410;2023-02-19T17:32:01;11.50;80.50
34095;DHT22;20372;47.080;15.410;2023-02-19T17:34:27;11.60;80.10
34095;DHT22;20372;47.080;15.410;2023-02-19T17:36:52;11.60;80.40
34095;DHT22;20372;47.080;15.410;2023-02-19T17:39:18;11.60;80.30
34095;DHT22;20372;47.080;15.410;2023-02-19T17:41:44;11.50;80.50
34095;DHT22;20372;47.080;15.410;2023-02-19T17:44:09;11.50;80.70
34095;DHT22;20372;47.080;15.410;2023-02-19T17:46:35;11.30;81.60
34095;DHT22;20372;47.080;15.410;2023-02-19T17:49:01;11.40;80.00
34095;DHT22;20372;47.080;15.410;2023-02-19T17:51:27;11.60;78.60
34095;DHT22;20372;47.080;15.410;2023-02-19T17:53:52;11.60;78.40
34095;DHT22;20372;47.080;15.410;2023-02-19T17:56:22;11.60;78.60
34095;DHT22;20372;47.080;15.410;2023-02-19T17:58:49;11.70;77.50
34095;DHT22;20372;47.080;15.410;2023-02-19T18:01:15;11.60;77.20